Time;durP1;ratioP1;P1;durP2;ratioP2;P2;SDS_P1;SDS_P2;PMS_P1;PMS_P2;Temp;Humidity;BMP_temperature;BMP_pressure;BME280_temperature;BME280_humidity;BME280_pressure;Samples;Min_cycle;Max_cycle;Signal;HPM_P1;HPM_P2
2022/08/23 00:01:59;;;;;;;;;;;;;;;22.69;78.12;100293.41;4418655;32;19937;-67
2022/08/23 00:04:27;;;;;;;;;;;;;;;22.60;78.56;100290.09;4417891;32;20008;-67
2022/08/23 00:06:54;;;;;;;;;;;;;;;22.54;78.57;100290.12;4419593;32;19981;-67
2022/08/23 00:09:21;;;;;;;;;;;;;;;22.58;78.83;100284.87;4416013;32;19996;-67
2022/08/23 00:11:49;;;;;;;;;;;;;;;22.41;78.79;100287.06;4422929;32;19937;-67
2022/08/23 00:16:54;;;;;;;;;;;;;;;22.81;77.60;100279.75;3964258;32;15853546;-67
2022/08/23 00:19:22;;;;;;;;;;;;;;;22.81;77.60;100279.75;4452052;32;20441;-67
2022/08/23 00:21:49;;;;;;;;;;;;;;;22.31;78.68;100287.91;4454132;32;20022;-67
2022/08/23 00:24:15;;;;;;;;;;;;;;;22.36;78.57;100282.13;4454299;32;19964;-67
2022/08/23 00:27:00;;;;;;;;;;;;;;;22.25;78.55;100285.09;4453483;32;20027;-67
2022/08/23 00:29:29;;;;;;;;;;;;;;;22.30;78.38;100277.75;4453244;32;20413;-67
2022/08/23 00:31:55;;;;;;;;;;;;;;;22.31;78.52;100279.31;4456173;32;19954;-67
2022/08/23 00:34:20;;;;;;;;;;;;;;;22.35;78.43;100279.81;4455258;32;19964;-67
2022/08/23 00:36:48;;;;;;;;;;;;;;;22.27;78.65;100282.44;4454962;32;19940;-67
2022/08/23 00:39:15;;;;;;;;;;;;;;;22.30;78.85;100281.37;4453006;32;20001;-67
2022/08/23 00:41:40;;;;;;;;;;;;;;;22.31;78.47;100280.09;4453274;32;19945;-67
2022/08/23 00:49:49;;;;;;;;;;;;;;;22.22;78.88;100277.56;4451907;32;19995;-68
2022/08/23 00:52:21;;;;;;;;;;;;;;;22.29;78.70;100287.66;4452927;32;19984;-67
2022/08/23 00:54:48;;;;;;;;;;;;;;;22.28;78.64;100284.03;4453081;32;20078;-67
2022/08/23 00:57:18;;;;;;;;;;;;;;;22.35;78.37;100294.13;4455468;32;19941;-68
2022/08/23 00:59:44;;;;;;;;;;;;;;;22.34;78.79;100287.63;4453014;32;20001;-68
2022/08/23 01:02:11;;;;;;;;;;;;;;;22.37;78.68;100285.78;4452963;32;19995;-68
2022/08/23 01:04:38;;;;;;;;;;;;;;;22.33;77.60;100291.03;4452741;32;19949;-68
2022/08/23 01:07:08;;;;;;;;;;;;;;;22.35;77.28;100288.41;4451571;32;20104;-68
2022/08/23 01:09:35;;;;;;;;;;;;;;;22.39;77.45;100298.28;4449673;32;19949;-68
2022/08/23 01:12:13;;;;;;;;;;;;;;;22.31;77.54;100288.69;4449774;32;19965;-68
2022/08/23 01:14:46;;;;;;;;;;;;;;;22.35;77.20;100294.91;4453227;32;19997;-68
2022/08/23 01:19:53;;;;;;;;;;;;;;;22.70;75.00;100288.47;3966951;32;15723572;-68
2022/08/23 01:25:03;;;;;;;;;;;;;;;22.66;75.22;100288.75;3970021;32;15722638;-68
2022/08/23 01:27:29;;;;;;;;;;;;;;;22.66;75.22;100288.75;4451428;32;19958;-68
2022/08/23 01:29:54;;;;;;;;;;;;;;;22.26;76.75;100291.59;4449962;32;20378;-68
2022/08/23 01:32:20;;;;;;;;;;;;;;;22.28;76.92;100295.50;4452260;32;19962;-68
2022/08/23 01:34:46;;;;;;;;;;;;;;;22.31;77.19;100297.31;4451076;32;19963;-68
2022/08/23 01:37:11;;;;;;;;;;;;;;;22.26;77.69;100298.09;4450993;32;20102;-68
2022/08/23 01:39:37;;;;;;;;;;;;;;;22.27;77.44;100298.91;4450148;32;20000;-68
2022/08/23 01:42:03;;;;;;;;;;;;;;;22.24;77.77;100288.47;4452348;32;19984;-68
2022/08/23 01:44:29;;;;;;;;;;;;;;;22.23;77.30;100287.69;4452238;32;20027;-68
2022/08/23 01:46:54;;;;;;;;;;;;;;;22.23;76.68;100286.91;4453593;32;19973;-68
2022/08/23 01:49:20;;;;;;;;;;;;;;;22.20;76.60;100290.84;4451562;32;19994;-68
2022/08/23 01:51:46;;;;;;;;;;;;;;;22.17;76.71;100286.94;4439685;32;19996;-68
2022/08/23 01:54:12;;;;;;;;;;;;;;;22.13;76.79;100291.41;4451250;32;20028;-68
2022/08/23 01:56:38;;;;;;;;;;;;;;;22.10;76.61;100293.25;4452270;32;20307;-68
2022/08/23 01:59:04;;;;;;;;;;;;;;;22.03;76.70;100296.66;4452168;32;19985;-68
2022/08/23 02:01:29;;;;;;;;;;;;;;;22.04;76.46;100300.31;4454096;32;20000;-68
2022/08/23 02:03:55;;;;;;;;;;;;;;;22.14;76.34;100307.28;4431599;32;19976;-68
2022/08/23 02:06:20;;;;;;;;;;;;;;;22.15;76.31;100306.00;4433333;32;20067;-68
2022/08/23 02:09:01;;;;;;;;;;;;;;;22.20;76.65;100300.22;4432227;32;19994;-68
2022/08/23 02:11:28;;;;;;;;;;;;;;;22.20;76.49;100296.56;4434520;32;20519;-68
2022/08/23 02:13:55;;;;;;;;;;;;;;;22.31;76.15;100300.16;4434089;32;20294;-68
2022/08/23 02:16:29;;;;;;;;;;;;;;;22.17;76.19;100301.28;4430833;32;19995;-68
2022/08/23 02:18:56;;;;;;;;;;;;;;;22.24;76.31;100305.69;4429713;32;20049;-68
2022/08/23 02:21:21;;;;;;;;;;;;;;;22.15;76.36;100311.72;4430713;32;19961;-68
2022/08/23 02:23:47;;;;;;;;;;;;;;;22.13;76.14;100309.38;4430514;32;20038;-68
2022/08/23 02:26:13;;;;;;;;;;;;;;;22.21;76.26;100306.75;4432534;32;19989;-69
2022/08/23 02:28:39;;;;;;;;;;;;;;;22.11;76.25;100297.66;4430634;32;19953;-68
2022/08/23 02:31:05;;;;;;;;;;;;;;;22.09;76.35;100296.62;4431410;32;19954;-68
2022/08/23 02:33:30;;;;;;;;;;;;;;;21.80;77.13;100300.94;4432673;32;20078;-68
2022/08/23 02:35:55;;;;;;;;;;;;;;;21.77;77.33;100307.72;4425027;32;19953;-69
2022/08/23 02:38:21;;;;;;;;;;;;;;;21.72;77.46;100299.88;4421716;32;19972;-68
2022/08/23 02:40:47;;;;;;;;;;;;;;;21.78;77.42;100300.66;4420248;32;20028;-68
2022/08/23 02:43:13;;;;;;;;;;;;;;;21.81;77.55;100290.25;4425314;32;20008;-68
2022/08/23 02:45:38;;;;;;;;;;;;;;;21.78;77.35;100294.19;4423681;32;19976;-68
2022/08/23 02:48:04;;;;;;;;;;;;;;;21.89;77.28;100302.72;4421423;32;19965;-68
2022/08/23 02:50:30;;;;;;;;;;;;;;;21.96;76.56;100297.22;4417847;32;19979;-68
2022/08/23 02:52:57;;;;;;;;;;;;;;;22.01;76.80;100292.75;4420105;32;20001;-68
2022/08/23 02:55:22;;;;;;;;;;;;;;;22.07;76.98;100297.16;4423318;32;20001;-68
2022/08/23 02:57:48;;;;;;;;;;;;;;;22.12;76.27;100299.22;4425685;32;19966;-68
2022/08/23 03:00:15;;;;;;;;;;;;;;;22.20;75.88;100310.91;4418880;32;19962;-68
2022/08/23 03:02:40;;;;;;;;;;;;;;;22.20;75.87;100305.16;4420581;32;20430;-68
2022/08/23 03:05:07;;;;;;;;;;;;;;;22.09;75.92;100302.38;4423405;32;20004;-68
2022/08/23 03:07:32;;;;;;;;;;;;;;;22.06;76.34;100304.19;4423051;32;20598;-68
2022/08/23 03:09:58;;;;;;;;;;;;;;;22.24;75.84;100312.19;4423149;32;19967;-68
2022/08/23 03:12:23;;;;;;;;;;;;;;;22.36;75.59;100310.03;4424240;32;20408;-68
2022/08/23 03:14:50;;;;;;;;;;;;;;;22.40;75.37;100307.66;4422677;32;20039;-68
2022/08/23 03:17:16;;;;;;;;;;;;;;;22.24;76.16;100305.69;4422031;32;20024;-68
2022/08/23 03:19:42;;;;;;;;;;;;;;;22.35;75.50;100302.72;4419524;32;20305;-68
2022/08/23 03:22:08;;;;;;;;;;;;;;;22.29;75.84;100302.00;4425842;32;19954;-68
2022/08/23 03:24:34;;;;;;;;;;;;;;;22.27;76.31;100296.78;4422869;32;20333;-69
2022/08/23 03:26:59;;;;;;;;;;;;;;;22.34;75.49;100304.06;4419055;32;19964;-68
2022/08/23 03:29:24;;;;;;;;;;;;;;;22.22;75.85;100303.34;4421303;32;20014;-68
2022/08/23 03:31:50;;;;;;;;;;;;;;;22.32;75.35;100303.78;4424998;32;20377;-68
2022/08/23 03:34:16;;;;;;;;;;;;;;;22.17;75.01;100286.16;4422586;32;19950;-68
2022/08/23 03:36:41;;;;;;;;;;;;;;;22.36;74.29;100292.84;4418069;32;19950;-68
2022/08/23 03:39:07;;;;;;;;;;;;;;;22.22;74.80;100294.75;4421407;32;20271;-69
2022/08/23 03:41:33;;;;;;;;;;;;;;;22.22;75.19;100303.34;4422513;32;19937;-69
2022/08/23 03:43:58;;;;;;;;;;;;;;;22.29;75.35;100304.84;4420213;32;19996;-68
2022/08/23 03:46:24;;;;;;;;;;;;;;;22.23;75.83;100309.84;4424782;32;19957;-69
2022/08/23 03:48:51;;;;;;;;;;;;;;;22.26;75.92;100312.44;4420083;32;19960;-69
2022/08/23 03:51:18;;;;;;;;;;;;;;;22.27;76.13;100313.22;4420355;32;19961;-68
2022/08/23 03:53:45;;;;;;;;;;;;;;;22.28;75.80;100306.19;4421021;32;19999;-69
2022/08/23 03:56:11;;;;;;;;;;;;;;;22.32;75.63;100295.19;4423445;32;19949;-68
2022/08/23 03:58:36;;;;;;;;;;;;;;;22.32;75.90;100295.97;4422257;32;19962;-69
2022/08/23 04:01:02;;;;;;;;;;;;;;;22.27;76.43;100296.78;4420803;32;19954;-68
2022/08/23 04:03:27;;;;;;;;;;;;;;;22.36;76.07;100310.03;4418923;32;19984;-68
2022/08/23 04:05:53;;;;;;;;;;;;;;;22.43;75.75;100318.06;4415959;32;19984;-69
2022/08/23 04:08:18;;;;;;;;;;;;;;;22.30;76.06;100312.16;4421635;32;20000;-69
2022/08/23 04:10:44;;;;;;;;;;;;;;;22.41;75.77;100326.41;4421129;32;19957;-69
2022/08/23 04:13:10;;;;;;;;;;;;;;;22.34;75.83;100335.59;4422811;32;19949;-69
2022/08/23 04:15:36;;;;;;;;;;;;;;;22.32;75.78;100332.47;4418161;32;20064;-69
2022/08/23 04:18:01;;;;;;;;;;;;;;;22.25;75.59;100341.63;4419813;32;20531;-69
2022/08/23 04:20:27;;;;;;;;;;;;;;;22.36;75.25;100335.84;4420010;32;19996;-69
2022/08/23 04:22:54;;;;;;;;;;;;;;;22.26;75.92;100323.12;4423535;32;22232;-69
2022/08/23 04:25:20;;;;;;;;;;;;;;;22.30;75.64;100315.78;4417163;32;19987;-69
2022/08/23 04:27:45;;;;;;;;;;;;;;;22.29;75.67;100302.00;4421738;32;19985;-69
2022/08/23 04:30:11;;;;;;;;;;;;;;;22.27;75.53;100304.63;4422322;32;19953;-69
2022/08/23 04:32:36;;;;;;;;;;;;;;;22.31;75.69;100305.91;4421558;32;20381;-69
2022/08/23 04:35:02;;;;;;;;;;;;;;;22.26;75.72;100305.91;4420603;32;19957;-68
2022/08/23 04:37:28;;;;;;;;;;;;;;;22.18;75.88;100311.44;4418879;32;19977;-69
2022/08/23 04:42:39;;;;;;;;;;;;;;;22.22;75.52;100308.28;4421136;32;19968;-69
2022/08/23 04:45:05;;;;;;;;;;;;;;;22.24;75.66;100314.28;4423309;32;20041;-68
2022/08/23 04:47:31;;;;;;;;;;;;;;;22.15;75.23;100308.84;4418522;32;19962;-69
2022/08/23 04:49:56;;;;;;;;;;;;;;;22.09;75.93;100311.72;4417675;32;19968;-69
2022/08/23 04:52:22;;;;;;;;;;;;;;;22.08;76.00;100309.38;4418367;32;19988;-69
2022/08/23 04:54:47;;;;;;;;;;;;;;;22.00;75.87;100319.88;4418238;32;19993;-69
2022/08/23 04:57:14;;;;;;;;;;;;;;;21.93;76.33;100323.28;4422025;32;20000;-69
2022/08/23 04:59:39;;;;;;;;;;;;;;;21.88;76.02;100316.28;4406112;32;20000;-69
2022/08/23 05:02:05;;;;;;;;;;;;;;;21.93;75.85;100332.66;4418506;32;20012;-69
2022/08/23 05:04:31;;;;;;;;;;;;;;;22.01;75.55;100333.66;4417630;32;20358;-69
2022/08/23 05:06:57;;;;;;;;;;;;;;;22.05;75.84;100328.44;4417085;32;20116;-69
2022/08/23 05:09:23;;;;;;;;;;;;;;;22.08;75.97;100335.19;4418693;32;19950;-69
2022/08/23 05:11:49;;;;;;;;;;;;;;;22.15;75.41;100332.53;4421989;32;19957;-69
2022/08/23 05:14:14;;;;;;;;;;;;;;;22.20;75.67;100336.69;4419252;32;19993;-69
2022/08/23 05:16:42;;;;;;;;;;;;;;;22.15;75.49;100338.28;4420542;32;19997;-69
2022/08/23 05:19:07;;;;;;;;;;;;;;;22.22;74.85;100339.81;4420463;32;20032;-69
2022/08/23 05:21:33;;;;;;;;;;;;;;;22.19;75.17;100338.81;4418989;32;19961;-69
2022/08/23 05:23:59;;;;;;;;;;;;;;;22.21;75.00;100347.62;4419673;32;19950;-69
2022/08/23 05:26:24;;;;;;;;;;;;;;;22.29;74.96;100342.13;4424502;32;20382;-68
2022/08/23 05:28:50;;;;;;;;;;;;;;;22.34;74.77;100344.19;4419006;32;19997;-69
2022/08/23 05:31:20;;;;;;;;;;;;;;;22.33;74.84;100340.53;4419690;32;19980;-69
2022/08/23 05:33:45;;;;;;;;;;;;;;;22.39;74.75;100346.22;4416610;32;20049;-69
2022/08/23 05:36:12;;;;;;;;;;;;;;;22.46;74.81;100340.72;4422475;32;20396;-69
2022/08/23 05:38:39;;;;;;;;;;;;;;;22.54;74.66;100340.97;4418926;32;20349;-69
2022/08/23 05:41:06;;;;;;;;;;;;;;;22.55;74.77;100348.28;4420638;32;20243;-68
2022/08/23 05:43:32;;;;;;;;;;;;;;;22.64;74.51;100354.44;4422308;32;19980;-69
2022/08/23 05:45:58;;;;;;;;;;;;;;;22.67;74.36;100356.25;4417390;32;20113;-69
2022/08/23 05:48:24;;;;;;;;;;;;;;;22.69;73.74;100361.47;4419044;32;20322;-69
2022/08/23 05:50:49;;;;;;;;;;;;;;;22.76;73.88;100363.75;4419609;32;19990;-69
2022/08/23 05:53:15;;;;;;;;;;;;;;;22.82;74.00;100364.50;4419573;32;20022;-68
2022/08/23 05:55:40;;;;;;;;;;;;;;;22.87;73.74;100361.63;4420122;32;19963;-69
2022/08/23 05:58:06;;;;;;;;;;;;;;;22.99;72.58;100365.19;4424594;32;20015;-69
2022/08/23 06:00:31;;;;;;;;;;;;;;;23.06;72.36;100376.06;4417693;32;19957;-69
2022/08/23 06:02:57;;;;;;;;;;;;;;;23.05;71.57;100363.81;4421303;32;20395;-69
2022/08/23 06:05:22;;;;;;;;;;;;;;;23.19;71.77;100362.66;4417240;32;20394;-68
2022/08/23 06:07:48;;;;;;;;;;;;;;;23.13;71.18;100359.03;4419647;32;20009;-69
2022/08/23 06:10:13;;;;;;;;;;;;;;;23.06;71.56;100365.38;4416401;32;20002;-69
2022/08/23 06:12:39;;;;;;;;;;;;;;;23.11;70.80;100363.78;4420054;32;20328;-69
2022/08/23 06:15:05;;;;;;;;;;;;;;;23.16;71.13;100369.47;4425702;32;20004;-69
2022/08/23 06:17:31;;;;;;;;;;;;;;;23.21;71.34;100365.78;4420900;32;20052;-69
2022/08/23 06:19:57;;;;;;;;;;;;;;;23.18;71.41;100371.78;4420457;32;19966;-69
2022/08/23 06:22:23;;;;;;;;;;;;;;;23.32;71.17;100374.31;4407445;32;19945;-69
2022/08/23 06:24:48;;;;;;;;;;;;;;;23.59;70.39;100377.47;4423688;32;19960;-69
2022/08/23 06:27:14;;;;;;;;;;;;;;;23.70;69.00;100372.37;4420374;32;20269;-69
2022/08/23 06:29:40;;;;;;;;;;;;;;;23.65;68.79;100364.59;4422899;32;19969;-69
2022/08/23 06:32:06;;;;;;;;;;;;;;;23.68;68.53;100369.25;4420152;32;20424;-69
2022/08/23 06:34:33;;;;;;;;;;;;;;;23.85;68.27;100374.81;4424765;32;19990;-69
2022/08/23 06:37:01;;;;;;;;;;;;;;;24.03;67.55;100380.66;4424114;32;19953;-69
2022/08/23 06:39:29;;;;;;;;;;;;;;;24.12;67.26;100370.88;4421129;32;19997;-69
2022/08/23 06:41:59;;;;;;;;;;;;;;;24.24;66.71;100369.44;4421249;32;20454;-70
2022/08/23 06:44:26;;;;;;;;;;;;;;;24.46;66.94;100375.69;4422567;32;19957;-69
2022/08/23 06:46:51;;;;;;;;;;;;;;;24.55;66.61;100368.75;4420425;32;19945;-69
2022/08/23 06:49:17;;;;;;;;;;;;;;;24.52;65.72;100373.50;4421373;32;20035;-69
2022/08/23 06:51:44;;;;;;;;;;;;;;;24.71;64.74;100368.53;4419911;32;19954;-68
2022/08/23 06:54:11;;;;;;;;;;;;;;;24.82;64.41;100374.12;4421246;32;19993;-69
2022/08/23 06:56:38;;;;;;;;;;;;;;;24.83;64.19;100378.56;4418875;32;20602;-69
2022/08/23 06:59:05;;;;;;;;;;;;;;;24.87;64.07;100372.47;4421809;32;20004;-69
2022/08/23 07:04:07;;;;;;;;;;;;;;;25.46;63.51;100360.50;3952242;32;15723555;-69
2022/08/23 07:06:33;;;;;;;;;;;;;;;25.46;63.51;100360.50;4436898;32;19949;-69
2022/08/23 07:08:59;;;;;;;;;;;;;;;25.06;62.98;100368.25;4433801;32;20000;-69
2022/08/23 07:11:25;;;;;;;;;;;;;;;25.14;62.51;100369.16;4437187;32;20025;-69
2022/08/23 07:13:51;;;;;;;;;;;;;;;25.14;62.97;100380.69;4436463;32;20034;-69
2022/08/23 07:16:17;;;;;;;;;;;;;;;25.01;63.30;100376.97;4435699;32;20972;-69
2022/08/23 07:18:44;;;;;;;;;;;;;;;25.22;62.34;100378.72;4433786;32;19992;-69
2022/08/23 07:21:11;;;;;;;;;;;;;;;25.18;62.71;100369.63;4435543;32;20335;-69
2022/08/23 07:23:38;;;;;;;;;;;;;;;25.35;62.38;100384.53;4435166;32;20008;-69
2022/08/23 07:26:08;;;;;;;;;;;;;;;25.28;61.99;100387.28;4433505;32;20013;-69
2022/08/23 07:28:33;;;;;;;;;;;;;;;25.35;61.61;100398.94;4436356;32;20001;-69
2022/08/23 07:31:09;;;;;;;;;;;;;;;25.28;61.99;100393.03;4435513;32;20251;-69
2022/08/23 07:33:35;;;;;;;;;;;;;;;25.47;61.47;100399.53;4435586;32;19953;-69
2022/08/23 07:36:01;;;;;;;;;;;;;;;25.38;62.02;100406.47;4434180;32;19963;-69
2022/08/23 07:38:26;;;;;;;;;;;;;;;25.53;61.38;100403.09;4435737;32;20251;-69
2022/08/23 07:40:52;;;;;;;;;;;;;;;25.58;61.01;100404.34;4433596;32;19961;-69
2022/08/23 07:43:17;;;;;;;;;;;;;;;25.67;61.02;100406.78;4435440;32;20013;-69
2022/08/23 07:45:43;;;;;;;;;;;;;;;25.70;61.10;100403.56;4438146;32;20256;-69
2022/08/23 07:48:08;;;;;;;;;;;;;;;25.82;61.04;100407.81;4432513;32;19982;-69
2022/08/23 07:50:34;;;;;;;;;;;;;;;26.02;59.77;100406.41;4433333;32;19958;-69
2022/08/23 07:53:01;;;;;;;;;;;;;;;26.13;59.06;100418.50;4434125;32;20020;-69
2022/08/23 07:55:27;;;;;;;;;;;;;;;26.13;58.74;100418.50;4436310;32;19945;-69
2022/08/23 07:57:53;;;;;;;;;;;;;;;26.28;58.76;100415.06;4434742;32;20385;-69
2022/08/23 08:00:18;;;;;;;;;;;;;;;26.32;58.60;100413.37;4434318;32;20031;-69
2022/08/23 08:02:44;;;;;;;;;;;;;;;26.27;58.60;100427.94;4434699;32;20007;-69
2022/08/23 08:05:09;;;;;;;;;;;;;;;26.20;59.40;100422.84;4423092;32;20466;-68
2022/08/23 08:07:35;;;;;;;;;;;;;;;25.99;60.14;100428.50;4433838;32;20726;-68
2022/08/23 08:10:01;;;;;;;;;;;;;;;26.08;59.49;100430.16;4432487;32;20110;-69
2022/08/23 08:12:27;;;;;;;;;;;;;;;26.16;59.29;100436.78;4434809;32;19979;-69
2022/08/23 08:14:53;;;;;;;;;;;;;;;26.10;59.04;100433.25;4427944;32;19953;-69
2022/08/23 08:17:19;;;;;;;;;;;;;;;26.11;59.19;100432.69;4425706;32;20587;-69
2022/08/23 08:19:45;;;;;;;;;;;;;;;26.06;58.89;100433.59;4408624;32;19953;-69
2022/08/23 08:22:11;;;;;;;;;;;;;;;26.10;59.43;100436.13;4424308;32;20007;-69
2022/08/23 08:24:37;;;;;;;;;;;;;;;26.10;60.08;100431.16;4424661;32;19962;-68
2022/08/23 08:27:03;;;;;;;;;;;;;;;26.30;59.52;100429.72;4415545;32;19953;-68
2022/08/23 08:29:28;;;;;;;;;;;;;;;26.45;59.39;100435.69;4422576;32;19989;-68
2022/08/23 08:31:54;;;;;;;;;;;;;;;26.47;58.87;100438.78;4423374;32;20247;-68
2022/08/23 08:34:20;;;;;;;;;;;;;;;26.46;58.77;100432.25;4423779;32;19999;-68
2022/08/23 08:36:48;;;;;;;;;;;;;;;26.51;58.96;100434.22;4423012;32;19988;-68
2022/08/23 08:39:17;;;;;;;;;;;;;;;26.66;58.12;100437.34;4423095;32;19968;-69
2022/08/23 08:46:56;;;;;;;;;;;;;;;27.61;55.08;100444.59;3952208;32;15723438;-69
2022/08/23 08:52:02;;;;;;;;;;;;;;;28.10;55.02;100451.19;3950100;32;15722549;-69
2022/08/23 08:54:28;;;;;;;;;;;;;;;28.10;55.02;100451.19;4431469;32;19945;-69
2022/08/23 08:56:56;;;;;;;;;;;;;;;27.67;54.13;100448.88;4428638;32;20304;-69
2022/08/23 08:59:26;;;;;;;;;;;;;;;27.87;54.05;100451.03;4430196;32;20419;-69
2022/08/23 09:01:52;;;;;;;;;;;;;;;28.20;53.13;100447.22;4431319;32;20018;-69
2022/08/23 09:04:18;;;;;;;;;;;;;;;28.35;52.58;100444.41;4428311;32;19953;-69
2022/08/23 09:09:44;;;;;;;;;;;;;;;28.60;51.78;100442.62;3950721;32;15725596;-68
2022/08/23 09:12:16;;;;;;;;;;;;;;;28.60;51.78;100442.62;4430290;32;19994;-69
2022/08/23 09:17:41;;;;;;;;;;;;;;;28.57;51.98;100445.91;3952546;32;15723524;-67
2022/08/23 09:20:07;;;;;;;;;;;;;;;28.57;51.98;100445.91;4428942;32;20008;-67
2022/08/23 09:22:36;;;;;;;;;;;;;;;28.08;52.02;100445.19;4428119;32;19953;-68
2022/08/23 09:25:02;;;;;;;;;;;;;;;28.00;52.03;100435.69;4431222;32;19969;-68
2022/08/23 09:27:29;;;;;;;;;;;;;;;28.01;52.34;100443.78;4429474;32;20618;-68
2022/08/23 09:29:56;;;;;;;;;;;;;;;28.21;52.40;100447.97;4431687;32;19984;-68
2022/08/23 09:32:38;;;;;;;;;;;;;;;28.59;51.03;100443.25;4432848;32;20008;-68
2022/08/23 09:35:05;;;;;;;;;;;;;;;28.71;50.91;100445.22;4429979;32;19988;-68
2022/08/23 09:37:44;;;;;;;;;;;;;;;28.83;48.32;100452.22;4428311;32;19957;-69
2022/08/23 09:40:24;;;;;;;;;;;;;;;29.19;48.63;100451.41;4430182;32;19959;-69
2022/08/23 09:43:09;;;;;;;;;;;;;;;29.22;48.22;100453.16;4431884;32;20001;-69
2022/08/23 09:45:36;;;;;;;;;;;;;;;29.44;47.68;100447.41;4430560;32;20020;-69
2022/08/23 09:48:03;;;;;;;;;;;;;;;29.54;47.18;100453.41;4427969;32;20024;-69
2022/08/23 09:50:32;;;;;;;;;;;;;;;29.51;47.02;100442.97;4429367;32;20004;-68
2022/08/23 09:53:01;;;;;;;;;;;;;;;29.89;46.34;100435.09;4427058;32;20412;-69
2022/08/23 09:58:14;;;;;;;;;;;;;;;30.96;44.34;100437.19;3975983;31;15716762;-70
2022/08/23 10:00:39;;;;;;;;;;;;;;;30.96;44.34;100437.19;4457451;32;19997;-69
2022/08/23 10:06:01;;;;;;;;;;;;;;;30.65;44.40;100445.97;3970890;31;15718057;-69
2022/08/23 10:08:31;;;;;;;;;;;;;;;30.65;44.40;100445.97;4449583;32;19960;-70
2022/08/23 10:11:04;;;;;;;;;;;;;;;30.16;45.04;100436.22;4448028;32;20010;-69
2022/08/23 10:13:30;;;;;;;;;;;;;;;30.37;44.53;100437.56;4450830;32;19988;-69
2022/08/23 10:18:44;;;;;;;;;;;;;;;30.26;44.97;100422.69;3951802;32;15723430;-68
2022/08/23 10:21:17;;;;;;;;;;;;;;;30.26;44.97;100422.69;4434088;32;20373;-68
2022/08/23 10:24:03;;;;;;;;;;;;;;;29.73;45.66;100433.53;4434571;32;20081;-68
2022/08/23 10:26:30;;;;;;;;;;;;;;;29.38;45.75;100419.94;4435312;32;20001;-69
2022/08/23 10:29:46;;;;;;;;;;;;;;;29.85;44.89;100423.84;4435675;32;20284;-68
2022/08/23 10:32:06;;;;;;;;;;;;;;;29.76;44.54;100427.34;4436499;32;20004;-68
2022/08/23 10:34:52;;;;;;;;;;;;;;;29.62;45.24;100423.09;4435802;32;20324;-68
2022/08/23 10:37:25;;;;;;;;;;;;;;;30.15;44.79;100434.66;4434030;32;19961;-68
2022/08/23 10:39:58;;;;;;;;;;;;;;;30.47;43.69;100417.41;4435174;32;20414;-68
2022/08/23 10:42:30;;;;;;;;;;;;;;;31.13;42.61;100422.75;4436434;32;20012;-68
2022/08/23 10:45:01;;;;;;;;;;;;;;;31.89;41.65;100418.75;4437444;32;19953;-69
2022/08/23 10:50:12;;;;;;;;;;;;;;;34.00;37.14;100437.22;3950515;32;15726610;-68
2022/08/23 10:52:45;;;;;;;;;;;;;;;34.00;37.14;100437.22;4428958;32;20027;-68
2022/08/23 10:55:33;;;;;;;;;;;;;;;34.50;34.72;100443.31;4427753;32;19957;-68
2022/08/23 10:57:59;;;;;;;;;;;;;;;34.64;33.97;100437.78;4424534;32;20313;-68
2022/08/23 11:00:28;;;;;;;;;;;;;;;34.33;34.51;100420.81;4426616;32;20013;-68
2022/08/23 11:05:31;;;;;;;;;;;;;;;32.43;37.44;100422.69;3949216;32;15775631;-68
2022/08/23 11:08:06;;;;;;;;;;;;;;;32.43;37.44;100422.69;4432333;32;20010;-68
2022/08/23 11:10:43;;;;;;;;;;;;;;;31.31;37.41;100428.09;4434012;32;19956;-70
2022/08/23 11:16:05;;;;;;;;;;;;;;;32.21;36.81;100427.34;3949048;31;15716043;-70
2022/08/23 11:31:47;;;;;;;;;;;;;;;31.28;38.55;100426.38;3951356;32;15722521;-68
2022/08/23 11:34:23;;;;;;;;;;;;;;;31.28;38.55;100426.38;4430768;32;20001;-68
2022/08/23 11:37:08;;;;;;;;;;;;;;;31.04;38.98;100427.06;4427417;32;20234;-69
2022/08/23 11:39:53;;;;;;;;;;;;;;;31.66;37.97;100447.22;4429546;32;20790;-68
2022/08/23 11:42:19;;;;;;;;;;;;;;;32.07;37.62;100449.44;4428410;32;20009;-68
2022/08/23 11:44:47;;;;;;;;;;;;;;;32.60;36.38;100448.91;4428897;32;19983;-69
2022/08/23 11:47:14;;;;;;;;;;;;;;;32.62;36.45;100443.25;4425419;32;19959;-68
2022/08/23 11:55:16;;;;;;;;;;;;;;;34.09;33.08;100442.31;3950728;32;15730638;-70
2022/08/23 11:57:56;;;;;;;;;;;;;;;34.09;33.08;100442.31;4431893;32;20355;-70
2022/08/23 12:03:03;;;;;;;;;;;;;;;34.52;32.04;100433.94;3953047;32;15726040;-69
2022/08/23 12:24:12;;;;;;;;;;;;;;;34.66;31.73;100435.03;3961689;31;15718479;-70
2022/08/23 12:29:26;;;;;;;;;;;;;;;35.73;29.92;100441.59;3945975;32;15722449;-69
2022/08/23 12:31:57;;;;;;;;;;;;;;;35.73;29.92;100441.59;4415331;32;20306;-69
2022/08/23 12:37:11;;;;;;;;;;;;;;;35.29;30.00;100438.34;3970968;31;15716713;-68
2022/08/23 12:39:38;;;;;;;;;;;;;;;35.29;30.00;100438.34;4448547;32;20450;-69
2022/08/23 12:42:12;;;;;;;;;;;;;;;34.75;30.71;100440.13;4448390;32;19993;-70
2022/08/23 12:44:38;;;;;;;;;;;;;;;35.78;29.52;100434.66;4447237;32;19965;-69
2022/08/23 12:47:20;;;;;;;;;;;;;;;35.46;29.90;100444.78;4449488;32;20349;-70
2022/08/23 12:49:55;;;;;;;;;;;;;;;34.89;30.46;100441.19;4448907;32;20051;-70
2022/08/23 12:52:23;;;;;;;;;;;;;;;34.38;31.66;100451.16;4447490;32;20011;-70
2022/08/23 12:54:49;;;;;;;;;;;;;;;33.99;32.64;100449.53;4445176;32;19960;-70
2022/08/23 12:57:18;;;;;;;;;;;;;;;34.01;32.94;100440.91;4449397;32;20028;-69
2022/08/23 13:00:05;;;;;;;;;;;;;;;33.85;33.29;100442.50;4446556;32;20345;-69
2022/08/23 13:02:32;;;;;;;;;;;;;;;33.29;33.92;100435.00;4449262;32;19996;-69
2022/08/23 13:05:01;;;;;;;;;;;;;;;32.94;34.97;100439.41;4446868;32;20384;-69
2022/08/23 13:07:27;;;;;;;;;;;;;;;32.48;35.93;100431.16;4447433;32;19993;-68
2022/08/23 13:09:53;;;;;;;;;;;;;;;32.67;35.77;100431.34;4447601;32;19957;-69
2022/08/23 13:12:19;;;;;;;;;;;;;;;32.27;36.71;100457.00;4449141;32;20378;-68
2022/08/23 13:14:48;;;;;;;;;;;;;;;31.92;37.60;100435.03;4450403;32;19960;-69
2022/08/23 13:17:17;;;;;;;;;;;;;;;31.85;37.95;100444.59;4446562;32;20004;-68
2022/08/23 13:19:43;;;;;;;;;;;;;;;31.25;39.24;100441.28;4449446;32;19977;-69
2022/08/23 13:22:24;;;;;;;;;;;;;;;31.74;38.67;100444.25;4450788;32;20001;-69
2022/08/23 13:25:09;;;;;;;;;;;;;;;31.67;38.38;100439.28;4451319;32;20012;-69
2022/08/23 13:32:49;;;;;;;;;;;;;;;32.67;36.68;100459.69;3954157;32;15729473;-68
2022/08/23 13:35:34;;;;;;;;;;;;;;;32.67;36.68;100459.69;4429734;32;20249;-70
2022/08/23 13:43:21;;;;;;;;;;;;;;;33.01;36.45;100456.03;3953032;32;15724254;-68
2022/08/23 13:45:50;;;;;;;;;;;;;;;33.01;36.45;100456.03;4435602;32;19993;-70
2022/08/23 13:48:25;;;;;;;;;;;;;;;32.21;36.59;100447.75;4435509;32;19996;-68
2022/08/23 13:50:51;;;;;;;;;;;;;;;32.10;37.22;100433.69;4433336;32;19945;-68
2022/08/23 13:53:17;;;;;;;;;;;;;;;32.12;37.17;100433.84;4435560;32;20031;-68
2022/08/23 13:55:46;;;;;;;;;;;;;;;32.34;36.78;100444.53;4423880;32;20417;-68
2022/08/23 13:58:13;;;;;;;;;;;;;;;32.10;37.28;100444.56;4434797;32;20325;-69
2022/08/23 14:00:39;;;;;;;;;;;;;;;31.43;38.64;100440.03;4434375;32;19945;-69
2022/08/23 14:03:06;;;;;;;;;;;;;;;31.57;38.66;100439.16;4436549;32;20015;-68
2022/08/23 14:05:33;;;;;;;;;;;;;;;31.61;38.63;100442.44;4424976;32;20279;-68
2022/08/23 14:07:59;;;;;;;;;;;;;;;32.52;37.13;100446.06;4436327;32;20365;-68
2022/08/23 14:10:24;;;;;;;;;;;;;;;33.45;35.42;100448.81;4436409;32;19993;-68
2022/08/23 14:12:52;;;;;;;;;;;;;;;34.18;33.93;100450.31;4435803;32;20000;-68
2022/08/23 14:15:18;;;;;;;;;;;;;;;34.06;34.04;100457.37;4436751;32;20310;-68
2022/08/23 14:17:45;;;;;;;;;;;;;;;34.35;33.67;100464.03;4434478;32;20039;-69
2022/08/23 14:20:11;;;;;;;;;;;;;;;34.38;34.04;100463.63;4434183;32;20264;-68
2022/08/23 14:22:37;;;;;;;;;;;;;;;34.93;32.88;100459.03;4434253;32;19953;-69
2022/08/23 14:25:04;;;;;;;;;;;;;;;35.82;31.71;100467.19;4435946;32;19964;-69